Time;durP1;ratioP1;P1;durP2;ratioP2;P2;SDS_P1;SDS_P2;PMS_P1;PMS_P2;Temp;Humidity;BMP_temperature;BMP_pressure;BME280_temperature;BME280_humidity;BME280_pressure;Samples;Min_cycle;Max_cycle;Signal;HPM_P1;HPM_P2
2021/12/08 00:00:34;;;;;;;3.07;1.17;;;;;;;3.90;100.00;99019.38;2074265;28;20383;-66
2021/12/08 00:01:34;;;;;;;2.80;1.10;;;;;;;3.91;100.00;99025.41;2074063;28;20030;-68
2021/12/08 00:02:34;;;;;;;1.97;1.27;;;;;;;3.90;100.00;99013.41;2074196;28;20065;-68
2021/12/08 00:03:35;;;;;;;2.40;1.00;;;;;;;3.92;100.00;99017.59;2074170;28;20395;-67
2021/12/08 00:04:36;;;;;;;5.07;1.60;;;;;;;3.93;100.00;99014.09;2074198;28;20036;-67
2021/12/08 00:05:38;;;;;;;2.97;1.33;;;;;;;3.97;100.00;99014.81;2074013;28;20033;-67
2021/12/08 00:06:39;;;;;;;3.60;1.23;;;;;;;3.97;100.00;99009.66;2074081;28;20026;-68
2021/12/08 00:07:39;;;;;;;3.10;1.47;;;;;;;3.99;100.00;99008.66;2074100;28;20084;-65
2021/12/08 00:08:46;;;;;;;6.43;1.50;;;;;;;4.01;100.00;99006.03;2074088;28;20030;-67
2021/12/08 00:09:59;;;;;;;2.38;1.00;;;;;;;4.06;100.00;98998.91;2074170;28;20438;-68
2021/12/08 00:13:20;;;;;;;3.13;1.23;;;;;;;4.13;100.00;98994.28;2074082;28;20065;-67
2021/12/08 00:14:20;;;;;;;3.70;1.20;;;;;;;4.14;100.00;98995.13;2074071;28;20025;-68
2021/12/08 00:15:20;;;;;;;4.77;1.27;;;;;;;4.14;100.00;98983.03;2065255;28;20022;-66
2021/12/08 00:16:21;;;;;;;4.57;1.60;;;;;;;4.17;100.00;98974.34;2065337;28;20026;-65
2021/12/08 00:17:21;;;;;;;2.87;1.20;;;;;;;4.18;100.00;98978.59;2074038;28;20056;-66
2021/12/08 00:18:26;;;;;;;1.83;1.30;;;;;;;4.18;100.00;98978.59;2074005;28;20034;-65
2021/12/08 00:19:28;;;;;;;3.00;1.10;;;;;;;4.22;100.00;98978.41;2074043;28;20509;-65
2021/12/08 00:20:31;;;;;;;4.93;2.28;;;;;;;4.24;100.00;98986.03;2073991;28;20034;-65
2021/12/08 00:21:31;;;;;;;2.42;1.88;;;;;;;4.23;100.00;98982.66;2073926;28;20022;-65
2021/12/08 00:22:32;;;;;;;2.70;1.30;;;;;;;4.24;100.00;98991.22;2073969;28;20104;-65
2021/12/08 00:23:32;;;;;;;2.43;1.30;;;;;;;4.25;100.00;98990.31;2074025;28;20376;-67
2021/12/08 00:24:32;;;;;;;3.73;1.77;;;;;;;4.24;100.00;98992.06;2073978;28;20030;-64
2021/12/08 00:25:34;;;;;;;2.90;1.17;;;;;;;4.27;100.00;98993.66;2073910;28;20391;-66
2021/12/08 00:26:36;;;;;;;2.72;1.20;;;;;;;4.28;100.00;99000.53;2073911;28;20109;-66
2021/12/08 00:27:36;;;;;;;2.60;1.05;;;;;;;4.33;100.00;99001.13;2073901;28;20032;-66
2021/12/08 00:28:36;;;;;;;3.07;1.53;;;;;;;4.40;100.00;99006.00;2073997;28;20467;-66
2021/12/08 00:29:37;;;;;;;3.87;1.37;;;;;;;4.43;100.00;99000.69;2074026;28;20025;-65
2021/12/08 00:30:41;;;;;;;2.22;1.45;;;;;;;4.45;100.00;99001.47;2073936;28;20276;-66
2021/12/08 00:31:45;;;;;;;4.03;1.42;;;;;;;4.46;100.00;99000.56;2065120;28;20085;-65
2021/12/08 00:32:46;;;;;;;2.88;1.45;;;;;;;4.49;100.00;99003.00;2065701;28;20170;-66
2021/12/08 00:33:46;;;;;;;3.17;1.27;;;;;;;4.52;100.00;99010.63;2073837;28;20040;-66
2021/12/08 00:34:47;;;;;;;2.33;1.23;;;;;;;4.51;100.00;99009.78;2073997;28;20034;-66
2021/12/08 00:35:49;;;;;;;4.97;1.67;;;;;;;4.54;100.00;99002.78;2065151;28;20515;-67
2021/12/08 00:36:55;;;;;;;4.80;1.40;;;;;;;4.58;100.00;99006.91;2065439;28;20030;-66
2021/12/08 00:37:56;;;;;;;2.92;1.17;;;;;;;4.58;100.00;99007.72;2073913;28;20022;-67
2021/12/08 00:38:57;;;;;;;5.10;1.50;;;;;;;4.57;100.00;98993.16;2073950;28;20424;-67
2021/12/08 00:39:57;;;;;;;5.53;1.30;;;;;;;4.58;100.00;98994.81;2073993;28;20060;-67
2021/12/08 00:40:58;;;;;;;5.32;1.75;;;;;;;4.58;100.00;99005.16;2073900;28;20135;-66
2021/12/08 00:41:58;;;;;;;3.23;1.33;;;;;;;4.59;100.00;99001.66;2073937;28;20033;-66
2021/12/08 00:42:59;;;;;;;3.20;1.87;;;;;;;4.59;100.00;99001.66;2073923;28;20696;-66
2021/12/08 00:43:59;;;;;;;3.90;1.70;;;;;;;4.61;100.00;98997.25;2073837;28;20022;-67
2021/12/08 00:45:00;;;;;;;3.73;1.50;;;;;;;4.63;100.00;98998.00;2073730;28;20077;-67
2021/12/08 00:46:00;;;;;;;4.60;1.97;;;;;;;4.64;100.00;98991.94;2073879;28;20022;-64
2021/12/08 00:47:01;;;;;;;4.75;1.88;;;;;;;4.68;100.00;98989.22;2064986;28;20029;-67
2021/12/08 00:48:03;;;;;;;4.73;1.53;;;;;;;4.70;100.00;98992.56;2065156;28;20034;-65
2021/12/08 00:49:05;;;;;;;2.53;1.30;;;;;;;4.72;100.00;98991.56;2073827;28;20792;-66
2021/12/08 00:50:08;;;;;;;3.88;1.33;;;;;;;4.72;100.00;98993.34;2073846;28;20084;-68
2021/12/08 00:51:08;;;;;;;4.22;1.60;;;;;;;4.73;100.00;99005.34;2073762;28;20065;-66
2021/12/08 00:52:09;;;;;;;2.20;1.23;;;;;;;4.72;100.00;98994.16;2073872;28;20054;-66
2021/12/08 00:53:10;;;;;;;4.43;1.03;;;;;;;4.72;100.00;98993.34;2073828;28;20135;-67
2021/12/08 00:54:10;;;;;;;3.40;1.30;;;;;;;4.72;100.00;98983.00;2065054;28;20026;-67
2021/12/08 00:55:14;;;;;;;3.23;1.40;;;;;;;4.74;100.00;98994.09;2065163;28;20097;-67
2021/12/08 00:56:14;;;;;;;3.20;1.20;;;;;;;4.75;100.00;99008.69;2073641;28;20041;-67
2021/12/08 00:57:14;;;;;;;2.47;1.40;;;;;;;4.76;100.00;99018.13;2073729;28;20053;-66
2021/12/08 00:58:15;;;;;;;4.33;1.17;;;;;;;4.76;100.00;99023.28;2073731;28;20018;-68
2021/12/08 00:59:15;;;;;;;3.63;1.33;;;;;;;4.76;100.00;99018.13;2073759;28;20026;-68
2021/12/08 01:00:20;;;;;;;4.00;1.47;;;;;;;4.76;100.00;99018.13;2073840;28;20055;-68
2021/12/08 01:01:20;;;;;;;1.63;0.75;;;;;;;4.77;100.00;99019.78;2073734;28;20383;-67
2021/12/08 01:02:20;;;;;;;2.97;1.20;;;;;;;4.78;100.00;99023.22;2073840;28;20026;-67
2021/12/08 01:03:21;;;;;;;5.07;1.10;;;;;;;4.78;100.00;99015.47;2065028;28;20037;-68
2021/12/08 01:04:21;;;;;;;3.42;1.23;;;;;;;4.79;100.00;99012.78;2065067;28;20030;-68
2021/12/08 01:05:26;;;;;;;5.83;1.20;;;;;;;4.81;100.00;99020.47;2073753;28;20038;-68
2021/12/08 01:06:27;;;;;;;5.75;1.30;;;;;;;4.79;100.00;99023.13;2073714;28;20091;-66
2021/12/08 01:07:27;;;;;;;2.72;1.35;;;;;;;4.81;100.00;99028.22;2064851;28;20101;-67
2021/12/08 01:08:29;;;;;;;4.50;1.30;;;;;;;4.81;100.00;99031.66;2065045;28;20030;-67
2021/12/08 01:09:30;;;;;;;4.22;1.38;;;;;;;4.83;100.00;99029.81;2073629;28;20022;-67
2021/12/08 01:10:31;;;;;;;1.88;1.20;;;;;;;4.84;100.00;99046.19;2073670;28;20025;-66
2021/12/08 01:11:32;;;;;;;1.83;1.10;;;;;;;4.86;100.00;99040.03;2073693;28;20072;-67
2021/12/08 01:12:32;;;;;;;3.13;1.17;;;;;;;4.88;100.00;99034.78;2073607;28;20022;-68
2021/12/08 01:13:32;;;;;;;2.30;0.90;;;;;;;4.89;100.00;99034.72;2073786;28;20462;-67
2021/12/08 01:14:34;;;;;;;2.33;0.70;;;;;;;4.90;100.00;99033.78;2073644;28;20032;-68
2021/12/08 01:15:37;;;;;;;2.17;1.00;;;;;;;4.92;100.00;99031.13;2073545;28;20022;-66
2021/12/08 01:16:38;;;;;;;3.70;1.17;;;;;;;4.93;100.00;99044.91;2073594;28;20087;-67
2021/12/08 01:17:38;;;;;;;3.33;0.97;;;;;;;4.94;100.00;99038.81;2073140;28;20072;-67
2021/12/08 01:18:39;;;;;;;3.60;1.00;;;;;;;4.96;100.00;99037.00;2073580;28;20026;-66
2021/12/08 01:19:39;;;;;;;2.08;1.00;;;;;;;4.98;100.00;99048.09;2073598;28;20462;-67
2021/12/08 01:20:42;;;;;;;4.47;1.57;;;;;;;4.98;100.00;99027.41;2073509;28;20033;-66
2021/12/08 01:21:42;;;;;;;2.10;0.73;;;;;;;5.00;100.00;99033.38;2073441;28;20030;-68
2021/12/08 01:22:43;;;;;;;2.87;1.07;;;;;;;5.02;100.00;99041.88;2073577;28;20359;-67
2021/12/08 01:23:43;;;;;;;;;;;;;;;5.02;100.00;99040.13;2074032;28;20022;-66
2021/12/08 01:24:44;;;;;;;1.70;0.70;;;;;;;5.03;100.00;99036.63;2073574;28;20004;-67
2021/12/08 01:25:45;;;;;;;2.72;1.02;;;;;;;5.03;100.00;99040.94;2073599;28;20368;-67
2021/12/08 01:26:46;;;;;;;3.22;1.10;;;;;;;5.03;100.00;99046.13;2073653;28;20018;-67
2021/12/08 01:27:46;;;;;;;2.83;1.10;;;;;;;5.03;100.00;99036.63;2064823;28;20093;-67
2021/12/08 01:28:46;;;;;;;4.23;1.27;;;;;;;5.06;100.00;99040.81;2064947;28;20273;-68
2021/12/08 01:29:48;;;;;;;2.40;0.87;;;;;;;5.08;100.00;99044.16;2073626;28;20025;-67
2021/12/08 01:30:51;;;;;;;2.53;0.90;;;;;;;5.09;100.00;99045.84;2064752;28;20018;-67
2021/12/08 01:31:51;;;;;;;3.83;1.23;;;;;;;5.09;100.00;99040.66;2065145;28;20098;-67
2021/12/08 01:32:53;;;;;;;4.03;1.23;;;;;;;5.09;100.00;99042.41;2073593;28;20041;-68
2021/12/08 01:33:53;;;;;;;5.15;1.20;;;;;;;5.12;100.00;99035.34;2073447;28;20101;-66
2021/12/08 01:34:53;;;;;;;2.23;0.90;;;;;;;5.13;100.00;99044.78;2073605;28;20041;-67
2021/12/08 01:35:54;;;;;;;3.97;1.10;;;;;;;5.15;100.00;99045.56;2064829;28;20459;-66
2021/12/08 01:36:54;;;;;;;2.00;1.10;;;;;;;5.17;100.00;99047.22;2064894;28;20034;-67
2021/12/08 01:37:55;;;;;;;2.80;1.17;;;;;;;5.14;100.00;99049.03;2073560;28;20013;-67
2021/12/08 01:38:55;;;;;;;2.00;0.83;;;;;;;5.14;100.00;99046.44;2073529;28;20527;-68
2021/12/08 01:39:56;;;;;;;2.30;1.00;;;;;;;5.12;100.00;99043.09;2073539;28;20124;-67
2021/12/08 01:40:56;;;;;;;5.63;1.05;;;;;;;5.13;100.00;99046.50;2064742;28;20361;-67
2021/12/08 01:41:57;;;;;;;4.10;0.90;;;;;;;5.13;100.00;99041.34;2064793;28;20097;-67
2021/12/08 01:42:59;;;;;;;1.77;0.93;;;;;;;5.11;100.00;99051.78;2073517;28;20447;-66
2021/12/08 01:46:41;;;;;;;5.53;1.15;;;;;;;5.14;100.00;99061.13;2073519;28;20046;-68
2021/12/08 01:47:41;;;;;;;2.00;1.23;;;;;;;5.17;100.00;99060.16;2073543;28;20483;-67
2021/12/08 01:48:43;;;;;;;5.17;1.10;;;;;;;5.16;100.00;99061.88;2073535;28;20024;-67
2021/12/08 01:49:43;;;;;;;2.50;0.88;;;;;;;5.18;100.00;99072.16;2073507;28;20075;-67
2021/12/08 01:50:48;;;;;;;3.60;1.27;;;;;;;5.19;100.00;99066.06;2073497;28;20034;-67
2021/12/08 01:51:49;;;;;;;5.03;1.08;;;;;;;5.19;100.00;99066.06;2073475;28;20036;-67
2021/12/08 01:52:49;;;;;;;5.95;1.30;;;;;;;5.18;100.00;99069.56;2073464;28;20030;-65
2021/12/08 01:53:52;;;;;;;2.93;1.20;;;;;;;5.19;100.00;99066.06;2073514;28;20473;-68
2021/12/08 01:54:54;;;;;;;2.05;1.15;;;;;;;5.19;100.00;99055.72;2073476;28;20060;-68
2021/12/08 01:55:54;;;;;;;;;;;;;;;5.21;100.00;99061.66;2073884;28;20092;-67
2021/12/08 01:56:56;;;;;;;2.20;1.10;;;;;;;5.17;100.00;99062.75;2073502;28;20003;-67
2021/12/08 01:57:57;;;;;;;2.20;0.85;;;;;;;5.17;100.00;99063.59;2073461;28;20101;-67
2021/12/08 01:58:57;;;;;;;2.67;0.90;;;;;;;5.17;100.00;99068.75;2073393;28;20028;-67
2021/12/08 01:59:58;;;;;;;2.97;1.10;;;;;;;5.18;100.00;99064.41;2073554;28;20018;-65
2021/12/08 02:01:05;;;;;;;3.40;1.30;;;;;;;5.23;100.00;99067.59;2073467;28;20180;-66
2021/12/08 02:02:05;;;;;;;3.72;1.20;;;;;;;5.23;100.00;99063.28;2073390;28;20276;-67
2021/12/08 02:03:07;;;;;;;2.80;1.23;;;;;;;5.22;100.00;99068.50;2073446;28;20029;-67
2021/12/08 02:04:07;;;;;;;;;;;;;;;5.21;100.00;99064.25;2073815;28;20109;-67
2021/12/08 02:05:07;;;;;;;3.22;1.00;;;;;;;5.25;100.00;99070.97;2064666;28;19961;-66
2021/12/08 02:06:10;;;;;;;5.15;1.15;;;;;;;5.27;100.00;99074.31;2064677;28;20117;-67
2021/12/08 02:07:11;;;;;;;3.22;1.08;;;;;;;5.27;100.00;99082.91;2073419;28;20034;-67
2021/12/08 02:08:11;;;;;;;5.23;1.53;;;;;;;5.29;100.00;99072.47;2073423;28;20038;-66
2021/12/08 02:09:15;;;;;;;2.20;1.13;;;;;;;5.28;100.00;99071.63;2073387;28;20650;-68
2021/12/08 02:10:15;;;;;;;4.35;1.27;;;;;;;5.27;100.00;99071.72;2064622;28;20082;-67
2021/12/08 02:11:15;;;;;;;3.43;1.33;;;;;;;5.27;100.00;99084.66;2064680;28;20484;-67
2021/12/08 02:12:16;;;;;;;3.70;1.13;;;;;;;5.27;100.00;99095.00;2064627;28;20051;-67
2021/12/08 02:13:16;;;;;;;6.97;1.33;;;;;;;5.26;100.00;99082.97;2056559;28;20022;-67
2021/12/08 02:14:16;;;;;;;5.07;1.43;;;;;;;5.27;100.00;99095.00;2064667;28;20121;-67
2021/12/08 02:15:18;;;;;;;3.83;2.50;;;;;;;5.29;100.00;99090.59;2073303;28;20483;-66
2021/12/08 02:16:18;;;;;;;;;;;;;;;5.33;100.00;99084.34;2065047;28;20125;-67
2021/12/08 02:17:19;;;;;;;10.38;1.88;;;;;;;5.36;100.00;99089.38;2064691;28;19909;-65
2021/12/08 02:18:19;;;;;;;3.80;1.00;;;;;;;5.36;100.00;99091.97;2073255;28;20030;-67
2021/12/08 02:19:20;;;;;;;2.63;1.13;;;;;;;5.36;100.00;99094.56;2073401;28;20394;-68
2021/12/08 02:20:28;;;;;;;4.88;1.10;;;;;;;5.34;100.00;99091.19;2073420;28;20339;-67
2021/12/08 02:21:32;;;;;;;4.60;1.55;;;;;;;5.35;100.00;99098.06;2073440;28;20026;-66
2021/12/08 02:22:33;;;;;;;6.72;1.13;;;;;;;5.36;100.00;99102.31;2073327;28;20042;-67
2021/12/08 02:23:33;;;;;;;4.87;1.27;;;;;;;5.37;100.00;99101.38;2073382;28;20032;-66
2021/12/08 02:24:33;;;;;;;9.93;1.93;;;;;;;5.36;100.00;99099.72;2064600;28;20312;-67
2021/12/08 02:25:35;;;;;;;5.03;1.33;;;;;;;5.35;100.00;99100.66;2064678;28;20026;-66
2021/12/08 02:26:36;;;;;;;5.30;1.50;;;;;;;5.39;100.00;99104.75;2073374;28;20026;-66
2021/12/08 02:27:37;;;;;;;7.07;1.52;;;;;;;5.37;100.00;99103.97;2073287;28;20029;-67
2021/12/08 02:28:37;;;;;;;6.23;1.40;;;;;;;5.36;100.00;99117.84;2073352;28;20022;-67
2021/12/08 02:29:48;;;;;;;6.33;1.43;;;;;;;5.35;100.00;99113.59;2074845;28;20022;-66
2021/12/08 02:30:55;;;;;;;7.25;1.67;;;;;;;5.35;100.00;99115.31;2074910;28;20018;-67
2021/12/08 02:32:10;;;;;;;3.90;1.33;;;;;;;5.38;100.00;99118.59;2066070;28;20027;-67
2021/12/08 02:46:46;;;;;;;9.82;1.63;;;;;;;5.29;100.00;99108.69;2074922;28;20061;-67
2021/12/08 02:47:54;;;;;;;9.10;2.35;;;;;;;5.27;100.00;99113.13;2074563;28;20168;-67
2021/12/08 02:48:54;;;;;;;3.83;1.20;;;;;;;5.23;100.00;99111.56;2074704;28;20034;-67
2021/12/08 02:49:55;;;;;;;2.92;1.40;;;;;;;5.21;100.00;99110.81;2074841;28;20018;-67
2021/12/08 02:50:56;;;;;;;;;;;;;;;5.14;100.00;99111.09;2075067;28;20038;-68
2021/12/08 02:51:57;;;;;;;6.68;1.40;;;;;;;5.14;100.00;99111.09;2074718;28;19964;-69
2021/12/08 02:52:59;;;;;;;5.30;1.67;;;;;;;5.11;100.00;99116.44;2074697;28;20151;-67
2021/12/08 02:54:00;;;;;;;5.72;1.67;;;;;;;5.11;100.00;99120.75;2074728;28;20092;-67
2021/12/08 02:55:06;;;;;;;6.35;1.80;;;;;;;5.13;100.00;99121.50;2065875;28;20156;-67
2021/12/08 02:56:07;;;;;;;7.72;1.55;;;;;;;5.12;100.00;99127.59;2066861;28;20103;-68
2021/12/08 02:57:07;;;;;;;4.80;1.50;;;;;;;5.11;100.00;99123.34;2074693;28;20076;-68
2021/12/08 02:58:08;;;;;;;4.25;1.48;;;;;;;5.10;100.00;99125.09;2074731;28;20391;-67
2021/12/08 02:59:09;;;;;;;;;;;;;;;5.09;100.00;99128.59;2074998;28;20076;-67
2021/12/08 03:00:12;;;;;;;3.63;1.20;;;;;;;5.06;100.00;99126.13;2074619;28;20409;-67
2021/12/08 03:01:13;;;;;;;5.40;1.23;;;;;;;5.04;100.00;99133.16;2074669;28;20026;-68
2021/12/08 03:02:14;;;;;;;6.50;1.92;;;;;;;5.07;100.00;99120.06;2074642;28;20030;-67
2021/12/08 03:03:14;;;;;;;6.20;1.40;;;;;;;5.14;100.00;99116.25;2065800;28;20456;-68
2021/12/08 03:04:15;;;;;;;6.88;1.88;;;;;;;5.19;100.00;99117.78;2057902;28;20027;-66
2021/12/08 03:05:15;;;;;;;7.47;1.67;;;;;;;5.17;100.00;99119.63;2065927;28;20417;-67
2021/12/08 03:06:17;;;;;;;8.30;1.98;;;;;;;5.13;100.00;99118.91;2074476;28;20074;-67
2021/12/08 03:07:17;;;;;;;6.70;2.05;;;;;;;5.11;100.00;99124.19;2074445;28;20128;-68
2021/12/08 03:08:18;;;;;;;7.03;2.17;;;;;;;5.08;100.00;99120.91;2074632;28;20125;-67
2021/12/08 03:09:18;;;;;;;5.53;1.90;;;;;;;5.10;100.00;99119.09;2074511;28;20030;-69
2021/12/08 03:10:25;;;;;;;4.83;1.70;;;;;;;5.14;100.00;99121.44;2065752;28;20504;-67
2021/12/08 03:11:26;;;;;;;6.18;1.80;;;;;;;5.15;100.00;99122.28;2065697;28;20480;-66
2021/12/08 03:12:28;;;;;;;11.40;1.95;;;;;;;5.19;100.00;99123.81;2065782;28;20074;-67
2021/12/08 03:13:32;;;;;;;4.47;1.48;;;;;;;5.23;100.00;99129.66;2074510;28;20022;-66
2021/12/08 03:14:32;;;;;;;4.78;1.80;;;;;;;5.25;100.00;99127.84;2074575;28;20026;-67
2021/12/08 03:15:34;;;;;;;4.05;1.70;;;;;;;5.24;100.00;99129.59;2074597;28;20029;-66
2021/12/08 03:16:37;;;;;;;4.88;1.52;;;;;;;5.24;99.45;99128.78;2074512;28;20028;-64
2021/12/08 03:17:38;;;;;;;4.93;1.80;;;;;;;5.27;99.40;99132.03;2074555;28;20024;-68
2021/12/08 03:18:41;;;;;;;8.32;1.92;;;;;;;5.27;99.50;99128.63;2074487;28;20410;-66
2021/12/08 03:19:41;;;;;;;9.57;1.83;;;;;;;5.29;99.39;99131.97;2074570;28;20022;-67
2021/12/08 03:20:44;;;;;;;6.73;1.73;;;;;;;5.30;98.93;99125.88;2074490;28;20038;-66
2021/12/08 03:21:44;;;;;;;4.10;1.27;;;;;;;5.31;98.86;99132.75;2074467;28;20030;-67
2021/12/08 03:22:47;;;;;;;4.97;1.23;;;;;;;5.31;98.39;99127.56;2074491;28;20104;-67
2021/12/08 03:23:56;;;;;;;5.65;1.55;;;;;;;5.31;98.08;99132.75;2074407;28;20067;-67
2021/12/08 03:24:58;;;;;;;8.05;1.60;;;;;;;5.31;98.00;99132.75;2074460;28;20049;-67
2021/12/08 03:26:02;;;;;;;5.10;1.70;;;;;;;5.33;97.58;99145.63;2074545;28;20598;-68
2021/12/08 03:27:13;;;;;;;4.90;1.40;;;;;;;5.31;97.59;99137.94;2065610;28;20026;-67
2021/12/08 03:28:22;;;;;;;5.97;1.77;;;;;;;5.29;97.73;99142.31;2067194;28;20105;-67
2021/12/08 03:29:34;;;;;;;7.78;2.00;;;;;;;5.28;97.62;99148.41;2074447;28;20061;-67
2021/12/08 03:30:38;;;;;;;7.40;1.48;;;;;;;5.29;97.41;99150.06;2074350;28;20029;-67
2021/12/08 03:31:42;;;;;;;5.32;1.40;;;;;;;5.30;97.56;99151.75;2065585;28;20077;-68
2021/12/08 03:32:42;;;;;;;6.22;1.30;;;;;;;5.28;97.14;99154.41;2066158;28;20463;-67
2021/12/08 03:33:44;;;;;;;7.30;1.60;;;;;;;5.28;96.70;99158.75;2074372;28;20024;-67
2021/12/08 03:34:52;;;;;;;2.92;1.23;;;;;;;5.29;96.54;99157.84;2065600;28;20113;-66
2021/12/08 03:35:52;;;;;;;6.88;1.30;;;;;;;5.28;96.25;99159.56;2058267;28;20015;-67
2021/12/08 03:36:53;;;;;;;5.03;2.03;;;;;;;5.25;95.94;99148.53;2065720;28;20031;-68
2021/12/08 03:37:54;;;;;;;5.07;1.70;;;;;;;5.20;96.39;99150.53;2074362;28;20495;-67
2021/12/08 03:38:54;;;;;;;6.30;1.50;;;;;;;5.19;96.29;99154.00;2074333;28;20383;-66
2021/12/08 03:39:56;;;;;;;5.10;1.30;;;;;;;5.20;95.65;99153.13;2074328;28;20022;-67
2021/12/08 03:40:58;;;;;;;4.80;1.20;;;;;;;5.19;95.44;99156.59;2073783;28;20033;-68
2021/12/08 03:42:00;;;;;;;4.35;1.55;;;;;;;5.19;95.84;99148.81;2074297;28;20101;-67
2021/12/08 03:43:00;;;;;;;4.80;1.35;;;;;;;5.17;95.21;99153.25;2065507;28;20029;-67
2021/12/08 03:44:03;;;;;;;4.33;1.47;;;;;;;5.17;94.80;99146.34;2065721;28;20157;-67
2021/12/08 03:45:16;;;;;;;3.95;1.23;;;;;;;5.14;95.22;99146.47;2074121;28;20224;-67
2021/12/08 03:46:18;;;;;;;6.45;1.85;;;;;;;5.12;95.04;99145.69;2074219;28;20109;-67
2021/12/08 03:47:25;;;;;;;7.18;1.45;;;;;;;5.09;94.63;99148.41;2065371;28;20464;-68
2021/12/08 03:48:43;;;;;;;3.72;1.10;;;;;;;5.08;94.55;99149.34;2066336;28;20105;-66
2021/12/08 03:49:46;;;;;;;4.68;1.50;;;;;;;5.03;94.85;99141.78;2065439;28;20065;-68
2021/12/08 03:50:46;;;;;;;5.97;1.83;;;;;;;4.98;94.70;99146.34;2065918;28;20101;-66
2021/12/08 03:51:46;;;;;;;5.27;1.60;;;;;;;4.95;95.21;99141.31;2074264;28;20375;-67
2021/12/08 03:52:47;;;;;;;3.90;1.73;;;;;;;4.90;94.76;99159.63;2074217;28;20284;-67
2021/12/08 03:53:47;;;;;;;6.20;1.93;;;;;;;4.81;95.19;99153.13;2065445;28;20293;-67
2021/12/08 03:54:47;;;;;;;5.70;1.50;;;;;;;4.77;95.24;99149.00;2065612;28;20512;-67
2021/12/08 03:55:50;;;;;;;5.47;1.27;;;;;;;4.75;95.43;99151.66;2074197;28;20037;-67
2021/12/08 03:56:50;;;;;;;3.85;1.48;;;;;;;4.75;95.58;99156.00;2074181;28;20561;-67
2021/12/08 03:57:51;;;;;;;7.17;1.60;;;;;;;4.74;95.47;99159.50;2074134;28;20064;-68
2021/12/08 03:58:51;;;;;;;8.77;2.43;;;;;;;4.72;95.25;99162.13;2074137;28;20383;-68
2021/12/08 03:59:51;;;;;;;6.20;1.43;;;;;;;4.75;95.18;99164.59;2065263;28;20015;-67
2021/12/08 04:00:54;;;;;;;8.03;1.60;;;;;;;4.72;95.13;99163.91;2065457;28;20096;-67
2021/12/08 04:01:55;;;;;;;5.25;1.27;;;;;;;4.70;95.58;99166.56;2073887;28;20030;-67
2021/12/08 04:03:02;;;;;;;6.25;2.20;;;;;;;4.70;94.95;99168.28;2074165;28;20029;-67
2021/12/08 04:04:06;;;;;;;5.95;1.63;;;;;;;4.68;95.47;99165.78;2074166;28;20021;-67
2021/12/08 04:05:08;;;;;;;3.15;1.25;;;;;;;4.68;95.52;99164.94;2065354;28;20026;-68
2021/12/08 04:06:25;;;;;;;6.22;1.52;;;;;;;4.66;94.99;99166.75;2065486;28;20026;-68
2021/12/08 04:07:26;;;;;;;4.25;1.10;;;;;;;4.55;95.19;99170.63;2074077;28;20483;-67
2021/12/08 04:08:40;;;;;;;4.97;1.33;;;;;;;4.46;95.96;99176.22;2074060;28;20104;-67
2021/12/08 04:09:43;;;;;;;6.07;1.20;;;;;;;4.36;96.70;99171.47;2074142;28;20112;-67
2021/12/08 04:10:46;;;;;;;4.70;1.20;;;;;;;4.31;97.22;99173.38;2074104;28;20026;-67
2021/12/08 04:11:47;;;;;;;6.65;1.23;;;;;;;4.33;97.25;99166.44;2074097;28;20465;-67
2021/12/08 04:12:51;;;;;;;6.07;1.50;;;;;;;4.35;97.32;99172.34;2073946;28;20018;-67
2021/12/08 04:13:57;;;;;;;5.63;1.55;;;;;;;4.38;97.02;99171.41;2073983;28;20083;-68
2021/12/08 04:15:00;;;;;;;6.95;1.45;;;;;;;4.34;97.32;99168.09;2065258;28;20018;-67
2021/12/08 04:16:01;;;;;;;4.00;1.25;;;;;;;4.27;97.51;99171.84;2065734;28;20021;-66
2021/12/08 04:17:04;;;;;;;4.30;1.07;;;;;;;4.21;98.02;99164.38;2074029;28;20026;-66
2021/12/08 04:18:05;;;;;;;6.45;1.55;;;;;;;4.18;97.83;99167.09;2074026;28;20034;-67
2021/12/08 04:19:07;;;;;;;5.15;1.45;;;;;;;4.22;98.59;99166.06;2074013;28;20057;-67
2021/12/08 04:20:10;;;;;;;5.00;1.52;;;;;;;4.21;98.46;99170.38;2074013;28;20030;-67
2021/12/08 04:21:12;;;;;;;6.55;2.20;;;;;;;4.22;98.73;99176.38;2074029;28;20351;-67
2021/12/08 04:22:21;;;;;;;4.38;1.50;;;;;;;4.22;98.90;99181.53;2074040;28;20033;-67
2021/12/08 04:23:26;;;;;;;4.57;1.08;;;;;;;4.17;98.99;99181.72;2074019;28;20574;-66
2021/12/08 04:24:26;;;;;;;4.50;1.20;;;;;;;4.14;98.98;99176.69;2065045;28;20038;-67
2021/12/08 04:25:31;;;;;;;8.87;1.63;;;;;;;4.13;99.28;99182.78;2065400;28;20032;-68
2021/12/08 04:26:39;;;;;;;4.65;1.42;;;;;;;4.15;99.31;99182.72;2073973;28;20044;-66
2021/12/08 04:27:41;;;;;;;6.72;1.48;;;;;;;4.12;99.11;99175.94;2073896;28;20021;-67
2021/12/08 04:28:42;;;;;;;3.20;1.00;;;;;;;4.11;99.37;99182.84;2065156;28;20022;-67
2021/12/08 04:29:44;;;;;;;6.20;1.63;;;;;;;4.06;99.26;99177.03;2065329;28;20050;-66
2021/12/08 04:30:51;;;;;;;7.63;1.45;;;;;;;4.05;99.29;99183.09;2073943;28;20033;-68
2021/12/08 04:31:53;;;;;;;5.22;1.45;;;;;;;4.07;99.06;99176.13;2073915;28;20387;-67
2021/12/08 04:32:54;;;;;;;7.22;1.42;;;;;;;4.12;98.53;99187.13;2073954;28;20028;-67
2021/12/08 04:34:00;;;;;;;5.63;1.60;;;;;;;4.10;98.62;99195.81;2073942;28;20022;-67
2021/12/08 04:35:07;;;;;;;5.97;1.48;;;;;;;4.14;98.29;99196.53;2065238;28;20023;-67
2021/12/08 04:36:12;;;;;;;4.40;1.27;;;;;;;4.15;97.66;99196.47;2065073;28;20033;-67
2021/12/08 04:37:23;;;;;;;9.23;1.48;;;;;;;4.14;97.85;99187.03;2065777;28;20113;-66
2021/12/08 04:38:30;;;;;;;;;;;;;;;4.12;97.80;99184.53;2065549;28;20392;-67
2021/12/08 04:41:07;;;;;;;4.10;1.17;;;;;;;4.07;97.30;99190.78;2040924;29;20035;-65
2021/12/08 04:42:13;;;;;;;4.40;1.10;;;;;;;4.01;97.52;99188.44;2070101;28;20061;-67
2021/12/08 04:45:29;;;;;;;4.70;1.10;;;;;;;3.97;96.65;99186.00;2074073;28;20037;-67
2021/12/08 04:47:30;;;;;;;5.22;1.00;;;;;;;3.96;96.68;99183.47;2073918;28;20109;-66
2021/12/08 04:48:16;;;;;;;7.47;1.20;;;;;;;3.97;96.87;99180.00;2068165;28;20559;-66
2021/12/08 04:50:03;;;;;;;7.90;1.20;;;;;;;3.95;96.35;99176.63;2073816;28;20018;-66
2021/12/08 04:51:17;;;;;;;5.47;1.50;;;;;;;3.88;96.58;99181.22;2073242;28;20491;-66
2021/12/08 04:52:32;;;;;;;8.80;1.30;;;;;;;3.89;96.28;99172.56;2073412;28;20030;-66
2021/12/08 05:07:32;;;;;;;7.00;1.17;;;;;;;4.17;93.86;99201.56;2048727;29;20055;-67
2021/12/08 05:08:41;;;;;;;;;;;;;;;4.21;93.59;99203.13;2049207;29;20043;-66
2021/12/08 05:09:43;;;;;;;5.03;1.10;;;;;;;4.24;93.31;99208.13;2048625;29;20370;-68
2021/12/08 05:10:44;;;;;;;6.38;1.02;;;;;;;4.25;93.28;99208.06;2048749;29;20039;-67
2021/12/08 05:11:53;;;;;;;6.03;1.20;;;;;;;4.28;93.41;99209.72;2048467;28;20130;-66
2021/12/08 05:12:55;;;;;;;3.35;0.70;;;;;;;4.27;93.45;99207.19;2061533;28;20034;-66
2021/12/08 05:14:01;;;;;;;5.72;0.82;;;;;;;4.25;93.50;99220.16;2073667;28;20064;-66
2021/12/08 05:15:17;;;;;;;5.25;1.08;;;;;;;4.22;93.94;99215.97;2073660;28;20453;-66
2021/12/08 05:16:19;;;;;;;6.38;1.10;;;;;;;4.24;93.41;99211.56;2073704;28;20075;-66
2021/12/08 05:17:29;;;;;;;8.15;1.45;;;;;;;4.26;94.04;99211.50;2073673;28;20432;-66
2021/12/08 05:18:34;;;;;;;4.70;1.30;;;;;;;4.24;93.78;99213.28;2073695;28;20427;-66
2021/12/08 05:19:35;;;;;;;2.55;0.77;;;;;;;4.22;93.90;99209.94;2064919;28;20073;-66
2021/12/08 05:20:42;;;;;;;7.75;1.00;;;;;;;4.23;93.38;99207.31;2064945;28;20439;-67
2021/12/08 05:22:14;;;;;;;4.68;1.00;;;;;;;4.25;93.53;99215.81;2073562;28;20471;-67
2021/12/08 05:23:22;;;;;;;3.88;0.82;;;;;;;4.24;93.22;99208.13;2073619;28;20030;-66
2021/12/08 05:24:32;;;;;;;5.80;1.08;;;;;;;4.26;92.91;99206.34;2073635;28;20041;-66
2021/12/08 05:25:35;;;;;;;6.20;1.15;;;;;;;4.23;93.48;99203.88;2073602;28;20028;-67
2021/12/08 05:26:45;;;;;;;4.68;1.40;;;;;;;4.18;93.76;99205.81;2073590;28;20080;-67
2021/12/08 05:27:49;;;;;;;4.20;0.73;;;;;;;4.18;93.76;99213.56;2064728;28;20034;-67
2021/12/08 05:28:52;;;;;;;5.78;1.08;;;;;;;4.14;93.66;99210.25;2065462;28;20060;-67
2021/12/08 05:30:06;;;;;;;4.53;1.40;;;;;;;4.12;94.01;99214.66;2073578;28;20014;-67
2021/12/08 05:31:16;;;;;;;3.88;1.05;;;;;;;4.11;93.79;99218.16;2073497;28;20032;-67
2021/12/08 05:32:17;;;;;;;5.50;1.10;;;;;;;4.13;94.14;99216.34;2073560;28;20022;-68
2021/12/08 05:33:18;;;;;;;3.78;0.98;;;;;;;4.13;94.29;99216.34;2073618;28;20061;-68
2021/12/08 05:34:19;;;;;;;9.55;1.20;;;;;;;4.15;94.13;99221.44;2073593;28;20026;-67
2021/12/08 05:35:21;;;;;;;8.95;1.50;;;;;;;4.15;93.94;99221.44;2073583;28;20514;-67